sensor_id;sensor_type;location;lat;lon;timestamp;P1;durP1;ratioP1;P2;durP2;ratioP2
52380;SDS011;38310;52.796;6.942;2023-07-28T00:00:09;23.27;;;15.57;;
52380;SDS011;38310;52.796;6.942;2023-07-28T00:02:35;23.48;;;15.48;;
52380;SDS011;38310;52.796;6.942;2023-07-28T00:05:01;24.13;;;15.77;;
52380;SDS011;38310;52.796;6.942;2023-07-28T00:07:26;25.27;;;15.23;;
52380;SDS011;38310;52.796;6.942;2023-07-28T00:09:52;29.98;;;16.90;;
52380;SDS011;38310;52.796;6.942;2023-07-28T00:12:18;24.77;;;15.75;;
52380;SDS011;38310;52.796;6.942;2023-07-28T00:14:44;26.45;;;16.40;;
52380;SDS011;38310;52.796;6.942;2023-07-28T00:17:13;20.92;;;14.55;;
52380;SDS011;38310;52.796;6.942;2023-07-28T00:19:39;20.95;;;14.73;;
52380;SDS011;38310;52.796;6.942;2023-07-28T00:22:05;20.05;;;13.63;;
52380;SDS011;38310;52.796;6.942;2023-07-28T00:24:31;22.83;;;14.82;;
52380;SDS011;38310;52.796;6.942;2023-07-28T00:26:57;24.00;;;15.02;;
52380;SDS011;38310;52.796;6.942;2023-07-28T00:29:22;22.10;;;16.52;;
52380;SDS011;38310;52.796;6.942;2023-07-28T00:31:51;25.63;;;16.13;;
52380;SDS011;38310;52.796;6.942;2023-07-28T00:34:18;25.25;;;16.58;;
52380;SDS011;38310;52.796;6.942;2023-07-28T00:36:43;25.77;;;15.20;;
52380;SDS011;38310;52.796;6.942;2023-07-28T00:39:09;25.05;;;16.08;;
52380;SDS011;38310;52.796;6.942;2023-07-28T00:41:35;24.92;;;15.45;;
52380;SDS011;38310;52.796;6.942;2023-07-28T00:44:01;21.67;;;15.65;;
52380;SDS011;38310;52.796;6.942;2023-07-28T00:46:27;22.75;;;15.90;;
52380;SDS011;38310;52.796;6.942;2023-07-28T00:48:53;21.38;;;14.63;;
52380;SDS011;38310;52.796;6.942;2023-07-28T00:51:19;24.27;;;16.25;;
52380;SDS011;38310;52.796;6.942;2023-07-28T00:53:44;22.90;;;15.48;;
52380;SDS011;38310;52.796;6.942;2023-07-28T00:56:11;26.70;;;15.82;;
52380;SDS011;38310;52.796;6.942;2023-07-28T00:58:37;25.98;;;16.25;;
52380;SDS011;38310;52.796;6.942;2023-07-28T01:01:03;28.02;;;17.17;;
52380;SDS011;38310;52.796;6.942;2023-07-28T01:03:29;22.88;;;16.27;;
52380;SDS011;38310;52.796;6.942;2023-07-28T01:06:16;26.90;;;15.57;;
52380;SDS011;38310;52.796;6.942;2023-07-28T01:08:56;28.83;;;17.80;;
52380;SDS011;38310;52.796;6.942;2023-07-28T01:11:23;34.20;;;17.67;;
52380;SDS011;38310;52.796;6.942;2023-07-28T01:13:49;29.90;;;17.63;;
52380;SDS011;38310;52.796;6.942;2023-07-28T01:16:15;27.98;;;17.98;;
52380;SDS011;38310;52.796;6.942;2023-07-28T01:18:42;24.70;;;17.83;;
52380;SDS011;38310;52.796;6.942;2023-07-28T01:21:09;28.10;;;17.83;;
52380;SDS011;38310;52.796;6.942;2023-07-28T01:24:01;28.20;;;17.92;;
52380;SDS011;38310;52.796;6.942;2023-07-28T01:26:41;32.10;;;19.08;;
52380;SDS011;38310;52.796;6.942;2023-07-28T01:29:08;31.95;;;18.60;;
52380;SDS011;38310;52.796;6.942;2023-07-28T01:31:36;32.05;;;19.35;;
52380;SDS011;38310;52.796;6.942;2023-07-28T01:34:03;31.90;;;17.92;;
52380;SDS011;38310;52.796;6.942;2023-07-28T01:36:29;30.10;;;18.08;;
52380;SDS011;38310;52.796;6.942;2023-07-28T01:38:54;30.25;;;19.02;;
52380;SDS011;38310;52.796;6.942;2023-07-28T01:41:20;34.90;;;19.02;;
52380;SDS011;38310;52.796;6.942;2023-07-28T01:43:46;36.40;;;20.10;;
52380;SDS011;38310;52.796;6.942;2023-07-28T01:46:11;30.33;;;20.08;;
52380;SDS011;38310;52.796;6.942;2023-07-28T01:48:37;34.03;;;20.77;;
52380;SDS011;38310;52.796;6.942;2023-07-28T01:51:03;36.55;;;21.27;;
52380;SDS011;38310;52.796;6.942;2023-07-28T01:53:29;34.90;;;21.70;;
52380;SDS011;38310;52.796;6.942;2023-07-28T01:55:55;28.98;;;18.80;;
52380;SDS011;38310;52.796;6.942;2023-07-28T01:58:21;38.42;;;20.55;;
52380;SDS011;38310;52.796;6.942;2023-07-28T02:00:47;36.88;;;20.17;;
52380;SDS011;38310;52.796;6.942;2023-07-28T02:03:12;38.65;;;21.60;;
52380;SDS011;38310;52.796;6.942;2023-07-28T02:05:38;36.03;;;22.48;;
52380;SDS011;38310;52.796;6.942;2023-07-28T02:08:04;31.00;;;20.20;;
52380;SDS011;38310;52.796;6.942;2023-07-28T02:10:29;28.70;;;19.42;;
52380;SDS011;38310;52.796;6.942;2023-07-28T02:12:55;40.80;;;22.98;;
52380;SDS011;38310;52.796;6.942;2023-07-28T02:15:21;47.85;;;26.35;;
52380;SDS011;38310;52.796;6.942;2023-07-28T02:17:47;31.92;;;21.02;;
52380;SDS011;38310;52.796;6.942;2023-07-28T02:20:13;35.80;;;21.33;;
52380;SDS011;38310;52.796;6.942;2023-07-28T02:22:40;39.90;;;21.67;;
52380;SDS011;38310;52.796;6.942;2023-07-28T02:25:07;37.00;;;20.27;;
52380;SDS011;38310;52.796;6.942;2023-07-28T02:27:33;32.15;;;19.98;;
52380;SDS011;38310;52.796;6.942;2023-07-28T02:29:59;36.40;;;21.50;;
52380;SDS011;38310;52.796;6.942;2023-07-28T02:32:25;32.03;;;19.83;;
52380;SDS011;38310;52.796;6.942;2023-07-28T02:34:53;38.83;;;22.13;;
52380;SDS011;38310;52.796;6.942;2023-07-28T02:37:19;36.53;;;21.08;;
52380;SDS011;38310;52.796;6.942;2023-07-28T02:39:45;33.58;;;21.33;;
52380;SDS011;38310;52.796;6.942;2023-07-28T02:42:11;35.10;;;20.50;;
52380;SDS011;38310;52.796;6.942;2023-07-28T02:44:37;34.95;;;20.85;;
52380;SDS011;38310;52.796;6.942;2023-07-28T02:47:04;28.33;;;18.73;;
52380;SDS011;38310;52.796;6.942;2023-07-28T02:49:30;30.73;;;19.27;;
52380;SDS011;38310;52.796;6.942;2023-07-28T02:51:56;32.10;;;20.13;;
52380;SDS011;38310;52.796;6.942;2023-07-28T02:54:22;32.70;;;18.65;;
52380;SDS011;38310;52.796;6.942;2023-07-28T02:56:49;27.35;;;19.23;;
52380;SDS011;38310;52.796;6.942;2023-07-28T02:59:15;29.42;;;18.40;;
52380;SDS011;38310;52.796;6.942;2023-07-28T03:01:40;30.65;;;18.85;;
52380;SDS011;38310;52.796;6.942;2023-07-28T03:04:06;37.45;;;21.77;;
52380;SDS011;38310;52.796;6.942;2023-07-28T03:06:32;32.45;;;19.77;;
52380;SDS011;38310;52.796;6.942;2023-07-28T03:08:59;29.00;;;18.13;;
52380;SDS011;38310;52.796;6.942;2023-07-28T03:11:24;27.95;;;18.73;;
52380;SDS011;38310;52.796;6.942;2023-07-28T03:13:50;31.50;;;18.85;;
52380;SDS011;38310;52.796;6.942;2023-07-28T03:16:16;33.65;;;19.30;;
52380;SDS011;38310;52.796;6.942;2023-07-28T03:18:42;33.45;;;19.33;;
52380;SDS011;38310;52.796;6.942;2023-07-28T03:21:08;30.40;;;18.92;;
52380;SDS011;38310;52.796;6.942;2023-07-28T03:23:34;34.67;;;21.00;;
52380;SDS011;38310;52.796;6.942;2023-07-28T03:26:00;34.13;;;19.33;;
52380;SDS011;38310;52.796;6.942;2023-07-28T03:28:25;31.13;;;18.83;;
52380;SDS011;38310;52.796;6.942;2023-07-28T03:30:51;31.65;;;19.95;;
52380;SDS011;38310;52.796;6.942;2023-07-28T03:33:17;29.40;;;19.98;;
52380;SDS011;38310;52.796;6.942;2023-07-28T03:35:43;31.77;;;20.27;;
52380;SDS011;38310;52.796;6.942;2023-07-28T03:38:10;34.08;;;21.65;;
52380;SDS011;38310;52.796;6.942;2023-07-28T03:40:36;32.45;;;19.92;;
52380;SDS011;38310;52.796;6.942;2023-07-28T03:43:02;33.38;;;20.38;;
52380;SDS011;38310;52.796;6.942;2023-07-28T03:45:27;33.38;;;20.05;;
52380;SDS011;38310;52.796;6.942;2023-07-28T03:47:54;27.30;;;18.40;;
52380;SDS011;38310;52.796;6.942;2023-07-28T03:50:20;26.52;;;18.05;;
52380;SDS011;38310;52.796;6.942;2023-07-28T03:52:45;35.92;;;20.58;;
52380;SDS011;38310;52.796;6.942;2023-07-28T03:55:11;32.33;;;20.83;;
52380;SDS011;38310;52.796;6.942;2023-07-28T03:57:37;27.75;;;18.75;;
52380;SDS011;38310;52.796;6.942;2023-07-28T04:00:03;29.35;;;19.38;;
52380;SDS011;38310;52.796;6.942;2023-07-28T04:02:29;35.90;;;20.77;;
52380;SDS011;38310;52.796;6.942;2023-07-28T04:04:56;32.47;;;20.13;;
52380;SDS011;38310;52.796;6.942;2023-07-28T04:07:22;36.33;;;19.52;;
52380;SDS011;38310;52.796;6.942;2023-07-28T04:09:48;29.05;;;20.48;;
52380;SDS011;38310;52.796;6.942;2023-07-28T04:12:14;30.48;;;20.38;;
52380;SDS011;38310;52.796;6.942;2023-07-28T04:14:39;31.10;;;21.13;;
52380;SDS011;38310;52.796;6.942;2023-07-28T04:17:06;33.42;;;20.98;;
52380;SDS011;38310;52.796;6.942;2023-07-28T04:19:32;33.72;;;20.50;;
52380;SDS011;38310;52.796;6.942;2023-07-28T04:21:59;31.73;;;18.30;;
52380;SDS011;38310;52.796;6.942;2023-07-28T04:24:25;32.97;;;18.70;;
52380;SDS011;38310;52.796;6.942;2023-07-28T04:26:51;29.90;;;20.17;;
52380;SDS011;38310;52.796;6.942;2023-07-28T04:29:19;29.70;;;20.02;;
52380;SDS011;38310;52.796;6.942;2023-07-28T04:31:45;36.95;;;21.08;;
52380;SDS011;38310;52.796;6.942;2023-07-28T04:34:11;31.55;;;18.63;;
52380;SDS011;38310;52.796;6.942;2023-07-28T04:36:37;28.02;;;19.30;;
52380;SDS011;38310;52.796;6.942;2023-07-28T04:39:02;33.00;;;20.83;;
52380;SDS011;38310;52.796;6.942;2023-07-28T04:41:28;31.58;;;21.20;;
52380;SDS011;38310;52.796;6.942;2023-07-28T04:43:54;33.35;;;19.45;;
52380;SDS011;38310;52.796;6.942;2023-07-28T04:46:21;30.95;;;20.23;;
52380;SDS011;38310;52.796;6.942;2023-07-28T04:48:46;34.10;;;20.50;;
52380;SDS011;38310;52.796;6.942;2023-07-28T04:51:12;30.65;;;18.67;;
52380;SDS011;38310;52.796;6.942;2023-07-28T04:53:38;29.77;;;18.08;;
52380;SDS011;38310;52.796;6.942;2023-07-28T04:56:04;31.75;;;19.77;;
52380;SDS011;38310;52.796;6.942;2023-07-28T04:58:30;30.77;;;18.60;;
52380;SDS011;38310;52.796;6.942;2023-07-28T05:00:56;31.88;;;19.88;;
52380;SDS011;38310;52.796;6.942;2023-07-28T05:03:21;32.28;;;20.42;;
52380;SDS011;38310;52.796;6.942;2023-07-28T05:05:47;31.52;;;20.38;;
52380;SDS011;38310;52.796;6.942;2023-07-28T05:08:13;27.02;;;18.77;;
52380;SDS011;38310;52.796;6.942;2023-07-28T05:10:40;32.30;;;19.13;;
52380;SDS011;38310;52.796;6.942;2023-07-28T05:13:07;25.98;;;18.85;;
52380;SDS011;38310;52.796;6.942;2023-07-28T05:15:33;30.60;;;19.42;;
52380;SDS011;38310;52.796;6.942;2023-07-28T05:17:58;29.30;;;19.35;;
52380;SDS011;38310;52.796;6.942;2023-07-28T05:20:24;31.33;;;19.95;;
52380;SDS011;38310;52.796;6.942;2023-07-28T05:22:50;28.20;;;19.60;;
52380;SDS011;38310;52.796;6.942;2023-07-28T05:25:16;30.55;;;18.52;;
52380;SDS011;38310;52.796;6.942;2023-07-28T05:27:41;28.63;;;19.30;;
52380;SDS011;38310;52.796;6.942;2023-07-28T05:30:07;32.40;;;19.10;;
52380;SDS011;38310;52.796;6.942;2023-07-28T05:32:35;30.45;;;20.27;;
52380;SDS011;38310;52.796;6.942;2023-07-28T05:35:01;29.45;;;18.98;;
52380;SDS011;38310;52.796;6.942;2023-07-28T05:37:27;32.42;;;19.08;;
52380;SDS011;38310;52.796;6.942;2023-07-28T05:39:53;34.10;;;20.70;;
52380;SDS011;38310;52.796;6.942;2023-07-28T05:42:19;28.98;;;19.27;;
52380;SDS011;38310;52.796;6.942;2023-07-28T05:44:44;25.90;;;17.77;;
52380;SDS011;38310;52.796;6.942;2023-07-28T05:47:10;29.67;;;18.45;;
52380;SDS011;38310;52.796;6.942;2023-07-28T05:49:36;33.45;;;20.08;;
52380;SDS011;38310;52.796;6.942;2023-07-28T05:52:02;27.38;;;18.77;;
52380;SDS011;38310;52.796;6.942;2023-07-28T05:54:28;31.63;;;18.63;;
52380;SDS011;38310;52.796;6.942;2023-07-28T05:56:53;34.40;;;21.23;;
52380;SDS011;38310;52.796;6.942;2023-07-28T05:59:19;31.17;;;20.10;;
52380;SDS011;38310;52.796;6.942;2023-07-28T06:01:45;30.85;;;19.63;;
52380;SDS011;38310;52.796;6.942;2023-07-28T06:04:11;34.45;;;19.67;;
52380;SDS011;38310;52.796;6.942;2023-07-28T06:06:36;28.88;;;18.50;;
52380;SDS011;38310;52.796;6.942;2023-07-28T06:09:02;34.85;;;19.92;;
52380;SDS011;38310;52.796;6.942;2023-07-28T06:11:28;32.55;;;19.15;;
52380;SDS011;38310;52.796;6.942;2023-07-28T06:13:53;30.80;;;18.48;;
52380;SDS011;38310;52.796;6.942;2023-07-28T06:16:19;32.95;;;19.85;;
52380;SDS011;38310;52.796;6.942;2023-07-28T06:18:45;29.73;;;19.38;;
52380;SDS011;38310;52.796;6.942;2023-07-28T06:21:11;30.70;;;20.15;;
52380;SDS011;38310;52.796;6.942;2023-07-28T06:23:36;32.13;;;20.77;;
52380;SDS011;38310;52.796;6.942;2023-07-28T06:26:02;34.60;;;19.52;;
52380;SDS011;38310;52.796;6.942;2023-07-28T06:28:28;28.60;;;18.80;;
52380;SDS011;38310;52.796;6.942;2023-07-28T06:30:54;33.85;;;19.13;;
52380;SDS011;38310;52.796;6.942;2023-07-28T06:33:20;30.75;;;19.45;;
52380;SDS011;38310;52.796;6.942;2023-07-28T06:35:46;26.63;;;18.38;;
52380;SDS011;38310;52.796;6.942;2023-07-28T06:38:12;27.17;;;18.35;;
52380;SDS011;38310;52.796;6.942;2023-07-28T06:40:38;26.55;;;17.58;;
52380;SDS011;38310;52.796;6.942;2023-07-28T06:43:04;27.02;;;17.25;;
52380;SDS011;38310;52.796;6.942;2023-07-28T06:45:30;27.40;;;17.55;;
52380;SDS011;38310;52.796;6.942;2023-07-28T06:47:55;25.52;;;16.20;;
52380;SDS011;38310;52.796;6.942;2023-07-28T06:50:21;23.55;;;16.45;;
52380;SDS011;38310;52.796;6.942;2023-07-28T06:52:47;24.27;;;16.48;;
52380;SDS011;38310;52.796;6.942;2023-07-28T06:55:14;28.58;;;15.95;;
52380;SDS011;38310;52.796;6.942;2023-07-28T06:57:40;25.05;;;15.50;;
52380;SDS011;38310;52.796;6.942;2023-07-28T07:00:06;23.60;;;16.75;;
52380;SDS011;38310;52.796;6.942;2023-07-28T07:02:35;21.77;;;15.13;;
52380;SDS011;38310;52.796;6.942;2023-07-28T07:05:01;21.33;;;14.02;;
52380;SDS011;38310;52.796;6.942;2023-07-28T07:07:27;25.13;;;16.05;;
52380;SDS011;38310;52.796;6.942;2023-07-28T07:09:53;23.88;;;15.60;;
52380;SDS011;38310;52.796;6.942;2023-07-28T07:12:19;19.58;;;13.82;;
52380;SDS011;38310;52.796;6.942;2023-07-28T07:14:46;27.23;;;16.00;;
52380;SDS011;38310;52.796;6.942;2023-07-28T07:17:12;22.23;;;14.75;;
52380;SDS011;38310;52.796;6.942;2023-07-28T07:19:38;23.10;;;15.77;;
52380;SDS011;38310;52.796;6.942;2023-07-28T07:22:04;23.40;;;14.75;;
52380;SDS011;38310;52.796;6.942;2023-07-28T07:24:30;19.67;;;13.52;;
52380;SDS011;38310;52.796;6.942;2023-07-28T07:26:56;21.33;;;14.98;;
52380;SDS011;38310;52.796;6.942;2023-07-28T07:29:22;21.35;;;14.32;;
52380;SDS011;38310;52.796;6.942;2023-07-28T07:31:48;21.15;;;14.05;;
52380;SDS011;38310;52.796;6.942;2023-07-28T07:34:14;21.08;;;14.50;;
52380;SDS011;38310;52.796;6.942;2023-07-28T07:36:39;24.10;;;14.55;;
52380;SDS011;38310;52.796;6.942;2023-07-28T07:39:06;19.13;;;13.57;;
52380;SDS011;38310;52.796;6.942;2023-07-28T07:41:32;19.65;;;13.50;;
52380;SDS011;38310;52.796;6.942;2023-07-28T07:43:59;20.92;;;13.93;;
52380;SDS011;38310;52.796;6.942;2023-07-28T07:46:24;18.80;;;13.63;;
52380;SDS011;38310;52.796;6.942;2023-07-28T07:48:51;21.45;;;13.82;;
52380;SDS011;38310;52.796;6.942;2023-07-28T07:51:18;18.25;;;13.10;;
52380;SDS011;38310;52.796;6.942;2023-07-28T07:53:43;19.00;;;12.27;;
52380;SDS011;38310;52.796;6.942;2023-07-28T07:56:10;14.23;;;11.18;;
52380;SDS011;38310;52.796;6.942;2023-07-28T07:58:36;16.95;;;12.57;;
52380;SDS011;38310;52.796;6.942;2023-07-28T08:01:02;15.80;;;11.02;;
52380;SDS011;38310;52.796;6.942;2023-07-28T08:03:28;19.20;;;12.30;;
52380;SDS011;38310;52.796;6.942;2023-07-28T08:05:54;16.75;;;12.10;;
52380;SDS011;38310;52.796;6.942;2023-07-28T08:08:21;18.75;;;12.32;;
52380;SDS011;38310;52.796;6.942;2023-07-28T08:10:47;18.48;;;11.60;;
52380;SDS011;38310;52.796;6.942;2023-07-28T08:13:13;20.23;;;12.93;;
52380;SDS011;38310;52.796;6.942;2023-07-28T08:15:40;16.85;;;12.15;;
52380;SDS011;38310;52.796;6.942;2023-07-28T08:18:10;17.13;;;12.73;;
52380;SDS011;38310;52.796;6.942;2023-07-28T08:20:36;16.33;;;12.00;;
52380;SDS011;38310;52.796;6.942;2023-07-28T08:23:02;15.55;;;11.50;;
52380;SDS011;38310;52.796;6.942;2023-07-28T08:25:28;17.98;;;11.40;;
52380;SDS011;38310;52.796;6.942;2023-07-28T08:27:54;19.10;;;11.68;;
52380;SDS011;38310;52.796;6.942;2023-07-28T08:30:20;15.93;;;11.02;;
52380;SDS011;38310;52.796;6.942;2023-07-28T08:32:45;14.90;;;10.77;;
52380;SDS011;38310;52.796;6.942;2023-07-28T08:35:11;17.30;;;11.15;;
52380;SDS011;38310;52.796;6.942;2023-07-28T08:37:37;15.18;;;10.40;;
52380;SDS011;38310;52.796;6.942;2023-07-28T08:40:03;14.98;;;10.23;;
52380;SDS011;38310;52.796;6.942;2023-07-28T08:42:37;17.05;;;9.25;;
52380;SDS011;38310;52.796;6.942;2023-07-28T08:45:04;17.38;;;10.00;;
52380;SDS011;38310;52.796;6.942;2023-07-28T08:47:32;13.23;;;9.00;;
52380;SDS011;38310;52.796;6.942;2023-07-28T08:49:58;13.52;;;8.52;;
52380;SDS011;38310;52.796;6.942;2023-07-28T08:52:24;12.60;;;8.60;;
52380;SDS011;38310;52.796;6.942;2023-07-28T08:54:50;14.00;;;8.48;;
52380;SDS011;38310;52.796;6.942;2023-07-28T08:57:16;10.65;;;7.13;;
52380;SDS011;38310;52.796;6.942;2023-07-28T08:59:44;11.95;;;8.02;;
52380;SDS011;38310;52.796;6.942;2023-07-28T09:02:16;11.02;;;6.65;;
52380;SDS011;38310;52.796;6.942;2023-07-28T09:04:47;8.95;;;6.80;;
52380;SDS011;38310;52.796;6.942;2023-07-28T09:07:14;10.15;;;6.50;;
52380;SDS011;38310;52.796;6.942;2023-07-28T09:09:40;10.15;;;6.88;;
52380;SDS011;38310;52.796;6.942;2023-07-28T09:12:06;8.23;;;6.63;;
52380;SDS011;38310;52.796;6.942;2023-07-28T09:14:37;10.88;;;6.07;;
52380;SDS011;38310;52.796;6.942;2023-07-28T09:17:07;8.35;;;6.28;;
52380;SDS011;38310;52.796;6.942;2023-07-28T09:19:34;10.05;;;6.32;;
52380;SDS011;38310;52.796;6.942;2023-07-28T09:22:03;10.57;;;6.05;;
52380;SDS011;38310;52.796;6.942;2023-07-28T09:24:30;9.60;;;5.50;;
52380;SDS011;38310;52.796;6.942;2023-07-28T09:26:57;10.43;;;5.90;;
52380;SDS011;38310;52.796;6.942;2023-07-28T09:29:24;9.20;;;6.15;;
52380;SDS011;38310;52.796;6.942;2023-07-28T09:31:53;10.18;;;6.55;;
52380;SDS011;38310;52.796;6.942;2023-07-28T09:34:28;10.57;;;6.85;;
52380;SDS011;38310;52.796;6.942;2023-07-28T09:36:54;9.40;;;6.03;;
52380;SDS011;38310;52.796;6.942;2023-07-28T09:39:25;10.75;;;7.03;;
52380;SDS011;38310;52.796;6.942;2023-07-28T09:41:51;13.85;;;7.72;;
52380;SDS011;38310;52.796;6.942;2023-07-28T09:44:17;12.00;;;6.65;;
52380;SDS011;38310;52.796;6.942;2023-07-28T09:49:20;9.82;;;6.20;;
52380;SDS011;38310;52.796;6.942;2023-07-28T09:51:54;11.45;;;6.85;;
52380;SDS011;38310;52.796;6.942;2023-07-28T09:54:27;11.07;;;6.18;;
52380;SDS011;38310;52.796;6.942;2023-07-28T09:56:58;14.13;;;6.82;;
52380;SDS011;38310;52.796;6.942;2023-07-28T09:59:42;11.98;;;7.13;;
52380;SDS011;38310;52.796;6.942;2023-07-28T10:02:11;11.48;;;6.78;;
52380;SDS011;38310;52.796;6.942;2023-07-28T10:04:37;8.93;;;6.63;;
52380;SDS011;38310;52.796;6.942;2023-07-28T10:07:04;11.93;;;6.40;;
52380;SDS011;38310;52.796;6.942;2023-07-28T10:09:32;10.52;;;6.65;;
52380;SDS011;38310;52.796;6.942;2023-07-28T10:11:59;8.48;;;6.05;;
52380;SDS011;38310;52.796;6.942;2023-07-28T10:14:29;9.50;;;6.40;;
52380;SDS011;38310;52.796;6.942;2023-07-28T10:17:05;10.70;;;6.00;;
52380;SDS011;38310;52.796;6.942;2023-07-28T10:19:37;8.93;;;5.60;;
52380;SDS011;38310;52.796;6.942;2023-07-28T10:22:08;9.60;;;6.72;;
52380;SDS011;38310;52.796;6.942;2023-07-28T10:24:56;12.57;;;7.72;;
52380;SDS011;38310;52.796;6.942;2023-07-28T10:30:02;11.35;;;6.53;;
52380;SDS011;38310;52.796;6.942;2023-07-28T10:32:36;10.27;;;5.75;;
52380;SDS011;38310;52.796;6.942;2023-07-28T10:35:07;8.75;;;5.40;;
52380;SDS011;38310;52.796;6.942;2023-07-28T10:37:36;11.13;;;4.97;;
52380;SDS011;38310;52.796;6.942;2023-07-28T10:42:47;10.10;;;5.20;;
52380;SDS011;38310;52.796;6.942;2023-07-28T10:45:14;6.82;;;4.40;;
52380;SDS011;38310;52.796;6.942;2023-07-28T10:47:41;8.30;;;4.80;;
52380;SDS011;38310;52.796;6.942;2023-07-28T10:50:10;9.85;;;6.22;;
52380;SDS011;38310;52.796;6.942;2023-07-28T10:52:43;9.45;;;5.93;;
52380;SDS011;38310;52.796;6.942;2023-07-28T10:57:40;7.93;;;4.60;;
52380;SDS011;38310;52.796;6.942;2023-07-28T11:00:07;7.43;;;4.78;;
52380;SDS011;38310;52.796;6.942;2023-07-28T11:02:36;7.85;;;5.28;;
52380;SDS011;38310;52.796;6.942;2023-07-28T11:05:09;8.05;;;4.78;;
52380;SDS011;38310;52.796;6.942;2023-07-28T11:07:36;9.15;;;5.20;;
52380;SDS011;38310;52.796;6.942;2023-07-28T11:10:03;7.07;;;4.90;;
52380;SDS011;38310;52.796;6.942;2023-07-28T11:12:31;9.00;;;5.28;;
52380;SDS011;38310;52.796;6.942;2023-07-28T11:14:59;9.32;;;5.93;;
52380;SDS011;38310;52.796;6.942;2023-07-28T11:17:34;10.30;;;5.47;;
52380;SDS011;38310;52.796;6.942;2023-07-28T11:20:00;7.57;;;5.32;;
52380;SDS011;38310;52.796;6.942;2023-07-28T11:22:26;8.35;;;5.30;;
52380;SDS011;38310;52.796;6.942;2023-07-28T11:24:52;7.25;;;4.93;;
52380;SDS011;38310;52.796;6.942;2023-07-28T11:27:18;8.75;;;5.15;;
52380;SDS011;38310;52.796;6.942;2023-07-28T11:29:44;7.43;;;4.97;;
52380;SDS011;38310;52.796;6.942;2023-07-28T11:32:10;7.40;;;5.43;;
52380;SDS011;38310;52.796;6.942;2023-07-28T11:34:35;6.82;;;4.55;;
52380;SDS011;38310;52.796;6.942;2023-07-28T11:37:01;6.82;;;4.68;;
52380;SDS011;38310;52.796;6.942;2023-07-28T11:39:30;5.78;;;3.90;;
52380;SDS011;38310;52.796;6.942;2023-07-28T11:41:56;6.28;;;4.18;;
52380;SDS011;38310;52.796;6.942;2023-07-28T11:44:22;6.70;;;4.68;;
52380;SDS011;38310;52.796;6.942;2023-07-28T11:46:49;5.80;;;3.90;;
52380;SDS011;38310;52.796;6.942;2023-07-28T11:49:19;6.18;;;4.43;;
52380;SDS011;38310;52.796;6.942;2023-07-28T11:51:52;6.07;;;4.20;;
52380;SDS011;38310;52.796;6.942;2023-07-28T11:54:23;5.43;;;3.83;;
52380;SDS011;38310;52.796;6.942;2023-07-28T11:56:51;6.35;;;4.30;;
52380;SDS011;38310;52.796;6.942;2023-07-28T11:59:21;8.05;;;5.57;;
52380;SDS011;38310;52.796;6.942;2023-07-28T12:01:51;8.43;;;5.57;;
52380;SDS011;38310;52.796;6.942;2023-07-28T12:04:24;8.38;;;5.80;;
52380;SDS011;38310;52.796;6.942;2023-07-28T12:07:10;8.48;;;6.38;;
52380;SDS011;38310;52.796;6.942;2023-07-28T12:12:29;8.02;;;6.30;;
52380;SDS011;38310;52.796;6.942;2023-07-28T12:14:56;7.07;;;5.13;;
52380;SDS011;38310;52.796;6.942;2023-07-28T12:17:30;9.32;;;6.78;;
52380;SDS011;38310;52.796;6.942;2023-07-28T12:19:57;8.80;;;5.85;;
52380;SDS011;38310;52.796;6.942;2023-07-28T12:22:25;8.63;;;6.15;;
52380;SDS011;38310;52.796;6.942;2023-07-28T12:24:51;7.50;;;5.90;;
52380;SDS011;38310;52.796;6.942;2023-07-28T12:27:17;8.50;;;6.20;;
52380;SDS011;38310;52.796;6.942;2023-07-28T12:29:45;8.88;;;6.70;;
52380;SDS011;38310;52.796;6.942;2023-07-28T12:32:11;7.00;;;6.00;;
52380;SDS011;38310;52.796;6.942;2023-07-28T12:34:37;8.57;;;6.88;;
52380;SDS011;38310;52.796;6.942;2023-07-28T12:37:05;9.40;;;6.20;;
52380;SDS011;38310;52.796;6.942;2023-07-28T12:39:31;8.32;;;5.50;;
52380;SDS011;38310;52.796;6.942;2023-07-28T12:41:58;6.20;;;4.80;;
52380;SDS011;38310;52.796;6.942;2023-07-28T12:44:24;8.20;;;5.90;;
52380;SDS011;38310;52.796;6.942;2023-07-28T12:46:50;5.97;;;4.85;;
52380;SDS011;38310;52.796;6.942;2023-07-28T12:49:16;6.85;;;4.93;;
52380;SDS011;38310;52.796;6.942;2023-07-28T12:51:44;9.80;;;4.85;;
52380;SDS011;38310;52.796;6.942;2023-07-28T12:54:10;6.93;;;4.78;;
52380;SDS011;38310;52.796;6.942;2023-07-28T12:56:37;7.43;;;4.75;;
52380;SDS011;38310;52.796;6.942;2023-07-28T12:59:03;5.57;;;4.10;;
52380;SDS011;38310;52.796;6.942;2023-07-28T13:01:29;5.32;;;4.22;;
52380;SDS011;38310;52.796;6.942;2023-07-28T13:03:55;5.78;;;4.15;;
52380;SDS011;38310;52.796;6.942;2023-07-28T13:06:21;5.03;;;3.78;;
52380;SDS011;38310;52.796;6.942;2023-07-28T13:08:47;6.25;;;3.92;;
52380;SDS011;38310;52.796;6.942;2023-07-28T13:11:12;9.13;;;4.20;;
52380;SDS011;38310;52.796;6.942;2023-07-28T13:13:41;5.43;;;3.80;;
52380;SDS011;38310;52.796;6.942;2023-07-28T13:16:07;5.72;;;4.05;;
52380;SDS011;38310;52.796;6.942;2023-07-28T13:18:32;5.72;;;4.30;;
52380;SDS011;38310;52.796;6.942;2023-07-28T13:20:58;4.60;;;3.70;;
52380;SDS011;38310;52.796;6.942;2023-07-28T13:23:24;6.55;;;3.95;;
52380;SDS011;38310;52.796;6.942;2023-07-28T13:25:50;6.70;;;4.07;;
52380;SDS011;38310;52.796;6.942;2023-07-28T13:28:17;5.85;;;4.20;;
52380;SDS011;38310;52.796;6.942;2023-07-28T13:30:43;6.22;;;4.30;;
52380;SDS011;38310;52.796;6.942;2023-07-28T13:33:09;5.10;;;3.63;;
52380;SDS011;38310;52.796;6.942;2023-07-28T13:35:35;4.68;;;3.30;;
52380;SDS011;38310;52.796;6.942;2023-07-28T13:38:01;4.82;;;2.90;;
52380;SDS011;38310;52.796;6.942;2023-07-28T13:40:27;4.55;;;3.20;;
52380;SDS011;38310;52.796;6.942;2023-07-28T13:42:53;5.10;;;3.53;;
52380;SDS011;38310;52.796;6.942;2023-07-28T13:45:19;7.13;;;3.50;;
52380;SDS011;38310;52.796;6.942;2023-07-28T13:47:45;5.38;;;3.42;;
52380;SDS011;38310;52.796;6.942;2023-07-28T13:50:10;5.30;;;2.80;;
52380;SDS011;38310;52.796;6.942;2023-07-28T13:52:36;3.80;;;2.40;;
52380;SDS011;38310;52.796;6.942;2023-07-28T13:55:02;4.63;;;2.65;;
52380;SDS011;38310;52.796;6.942;2023-07-28T13:57:30;4.63;;;2.70;;
52380;SDS011;38310;52.796;6.942;2023-07-28T14:00:03;4.13;;;3.03;;
52380;SDS011;38310;52.796;6.942;2023-07-28T14:02:34;5.60;;;3.00;;
52380;SDS011;38310;52.796;6.942;2023-07-28T14:05:00;3.75;;;2.30;;
52380;SDS011;38310;52.796;6.942;2023-07-28T14:07:26;4.80;;;3.00;;
52380;SDS011;38310;52.796;6.942;2023-07-28T14:09:52;3.40;;;2.25;;
52380;SDS011;38310;52.796;6.942;2023-07-28T14:12:18;3.40;;;2.78;;
52380;SDS011;38310;52.796;6.942;2023-07-28T14:14:43;4.43;;;2.88;;
52380;SDS011;38310;52.796;6.942;2023-07-28T14:17:09;3.75;;;3.10;;
52380;SDS011;38310;52.796;6.942;2023-07-28T14:19:37;5.90;;;2.70;;
52380;SDS011;38310;52.796;6.942;2023-07-28T14:22:03;4.53;;;3.10;;
52380;SDS011;38310;52.796;6.942;2023-07-28T14:24:30;4.07;;;3.17;;
52380;SDS011;38310;52.796;6.942;2023-07-28T14:26:55;4.53;;;3.30;;
52380;SDS011;38310;52.796;6.942;2023-07-28T14:29:21;4.95;;;3.50;;
52380;SDS011;38310;52.796;6.942;2023-07-28T14:31:47;4.65;;;3.35;;
52380;SDS011;38310;52.796;6.942;2023-07-28T14:34:13;3.10;;;2.53;;
52380;SDS011;38310;52.796;6.942;2023-07-28T14:36:39;4.53;;;2.95;;
52380;SDS011;38310;52.796;6.942;2023-07-28T14:39:05;3.78;;;2.55;;
52380;SDS011;38310;52.796;6.942;2023-07-28T14:41:31;4.60;;;2.70;;